Time;durP1;ratioP1;P1;durP2;ratioP2;P2;SDS_P1;SDS_P2;PMS_P1;PMS_P2;Temp;Humidity;BMP_temperature;BMP_pressure;BME280_temperature;BME280_humidity;BME280_pressure;Samples;Min_cycle;Max_cycle;Signal;HPM_P1;HPM_P2
2023/02/22 00:02:11;;;;;;;12.30;11.43;;;9.50;99.90;;;;;;4999006;28;20488;-78
2023/02/22 00:04:41;;;;;;;11.40;10.60;;;9.60;99.90;;;;;;5002313;28;20599;-78
2023/02/22 00:07:09;;;;;;;12.27;11.17;;;9.70;99.90;;;;;;5004227;28;20502;-78
2023/02/22 00:09:38;;;;;;;11.30;10.60;;;9.60;99.90;;;;;;5004544;28;20461;-78
2023/02/22 00:12:07;;;;;;;11.20;10.43;;;9.60;99.90;;;;;;4997405;28;20438;-78
2023/02/22 00:14:35;;;;;;;11.77;11.07;;;9.60;99.90;;;;;;4998453;28;21122;-79
2023/02/22 00:17:04;;;;;;;11.40;10.60;;;9.60;99.90;;;;;;4997501;28;20458;-77
2023/02/22 00:19:32;;;;;;;10.70;10.10;;;9.60;99.90;;;;;;4995909;28;20468;-78
2023/02/22 00:22:01;;;;;;;10.73;9.93;;;9.50;99.90;;;;;;4995552;28;20483;-79
2023/02/22 00:24:30;;;;;;;11.10;10.30;;;9.50;99.90;;;;;;4998531;28;20484;-78
2023/02/22 00:26:58;;;;;;;10.80;10.10;;;9.50;99.90;;;;;;4998514;28;20473;-77
2023/02/22 00:29:27;;;;;;;11.07;10.27;;;9.50;99.90;;;;;;4993643;28;21001;-76
2023/02/22 00:31:55;;;;;;;10.30;9.80;;;9.40;99.90;;;;;;5004412;28;20468;-77
2023/02/22 00:34:25;;;;;;;11.13;10.33;;;9.40;99.90;;;;;;5011083;28;20459;-79
2023/02/22 00:36:53;;;;;;;11.73;10.80;;;9.40;99.90;;;;;;4997326;28;20523;-77
2023/02/22 00:39:21;;;;;;;11.47;10.60;;;9.40;99.90;;;;;;4996677;28;20477;-77
2023/02/22 00:41:49;;;;;;;9.43;8.83;;;9.40;99.90;;;;;;5004560;28;20452;-77
2023/02/22 00:44:17;;;;;;;10.43;9.53;;;9.30;99.90;;;;;;4999981;28;20458;-78
2023/02/22 00:46:46;;;;;;;11.13;10.17;;;9.30;99.90;;;;;;4998934;28;20579;-79
2023/02/22 00:49:14;;;;;;;11.50;10.33;;;9.30;99.90;;;;;;5001914;28;20450;-79
2023/02/22 00:51:43;;;;;;;11.10;10.27;;;9.20;99.90;;;;;;4997629;28;20468;-79
2023/02/22 00:54:13;;;;;;;11.33;10.57;;;9.20;99.90;;;;;;4998081;28;20442;-79
2023/02/22 00:56:41;;;;;;;10.87;9.83;;;9.20;99.90;;;;;;4999188;28;20476;-77
2023/02/22 00:59:09;;;;;;;10.73;9.83;;;9.20;99.90;;;;;;4998095;28;20466;-78
2023/02/22 01:01:37;;;;;;;12.13;11.07;;;9.20;99.90;;;;;;5007230;28;20464;-78
2023/02/22 01:04:05;;;;;;;11.70;10.80;;;9.10;99.90;;;;;;5000759;28;20481;-79
2023/02/22 01:06:34;;;;;;;9.97;9.30;;;9.10;99.90;;;;;;5004149;28;20538;-79
2023/02/22 01:09:06;;;;;;;10.93;10.13;;;9.00;99.90;;;;;;4996422;28;20455;-79
2023/02/22 01:11:34;;;;;;;11.13;10.13;;;9.10;99.90;;;;;;5001376;28;20464;-78
2023/02/22 01:14:02;;;;;;;12.70;11.60;;;9.10;99.90;;;;;;5001757;28;20512;-77
2023/02/22 01:16:30;;;;;;;13.17;12.10;;;9.00;99.90;;;;;;4995911;28;20588;-72
2023/02/22 01:19:00;;;;;;;12.23;11.17;;;8.80;99.90;;;;;;4998013;28;20962;-76
2023/02/22 01:21:28;;;;;;;13.90;12.60;;;8.70;99.90;;;;;;5004135;28;20444;-75
2023/02/22 01:23:56;;;;;;;12.17;11.17;;;8.90;99.90;;;;;;4986402;28;20565;-77
2023/02/22 01:26:26;;;;;;;13.67;12.10;;;9.00;99.90;;;;;;4991712;28;20919;-77
2023/02/22 01:28:54;;;;;;;13.70;12.60;;;8.90;99.90;;;;;;4993571;28;20474;-77
2023/02/22 01:31:22;;;;;;;14.07;12.50;;;8.80;99.90;;;;;;4992536;28;20477;-79
2023/02/22 01:33:51;;;;;;;13.73;12.33;;;8.70;99.90;;;;;;4987617;28;20626;-79
2023/02/22 01:36:19;;;;;;;15.20;12.63;;;8.90;99.90;;;;;;4999888;28;20578;-81
2023/02/22 01:38:47;;;;;;;14.93;12.97;;;8.90;99.90;;;;;;5001514;28;20491;-81
2023/02/22 01:41:17;;;;;;;11.90;10.80;;;9.00;99.90;;;;;;4998718;28;20536;-79
2023/02/22 01:43:46;;;;;;;13.47;12.13;;;9.00;99.90;;;;;;5004410;28;20580;-79
2023/02/22 01:46:23;;;;;;;13.20;12.00;;;8.90;99.90;;;;;;5000965;28;20485;-81
2023/02/22 01:48:55;;;;;;;14.17;12.67;;;8.90;99.90;;;;;;5000470;28;20449;-80
2023/02/22 01:51:27;;;;;;;12.80;11.70;;;8.90;99.90;;;;;;5001725;28;20923;-81
2023/02/22 01:53:58;;;;;;;13.03;11.67;;;8.90;99.90;;;;;;4999017;28;21804;-80
2023/02/22 01:56:29;;;;;;;14.63;12.30;;;8.80;99.90;;;;;;5000513;28;20485;-80
2023/02/22 01:59:02;;;;;;;13.07;11.30;;;8.60;99.90;;;;;;4999026;28;20579;-77
2023/02/22 02:01:30;;;;;;;12.27;10.37;;;8.70;99.90;;;;;;4998550;28;20515;-80
2023/02/22 02:04:03;;;;;;;11.93;10.70;;;8.80;99.90;;;;;;5004146;28;20543;-77
2023/02/22 02:06:35;;;;;;;11.77;10.57;;;8.70;99.90;;;;;;5000008;28;20487;-78
2023/02/22 02:09:10;;;;;;;10.90;10.10;;;8.70;99.90;;;;;;4999812;28;20475;-79
2023/02/22 02:11:40;;;;;;;11.20;10.30;;;8.60;99.90;;;;;;5005271;28;20462;-77
2023/02/22 02:14:11;;;;;;;11.33;10.43;;;8.60;99.90;;;;;;4997832;28;20511;-78
2023/02/22 02:16:42;;;;;;;11.43;10.37;;;8.70;99.90;;;;;;4999007;28;20469;-79
2023/02/22 02:19:20;;;;;;;11.30;10.30;;;8.60;99.90;;;;;;4999810;28;20467;-79
2023/02/22 02:22:12;;;;;;;10.13;9.33;;;8.70;99.90;;;;;;5008005;28;20919;-79
2023/02/22 02:25:25;;;;;;;11.40;10.30;;;8.70;99.90;;;;;;5000455;28;21100;-78
2023/02/22 02:28:12;;;;;;;13.87;10.30;;;8.60;99.90;;;;;;5003728;28;20495;-79
2023/02/22 02:31:14;;;;;;;11.37;10.57;;;8.70;99.90;;;;;;4998014;28;20464;-79
2023/02/22 02:33:51;;;;;;;11.53;10.60;;;8.50;99.90;;;;;;4990032;28;20452;-79
2023/02/22 02:36:26;;;;;;;12.03;11.10;;;8.40;99.90;;;;;;4997851;28;20519;-79
2023/02/22 02:38:58;;;;;;;11.13;10.20;;;8.50;99.90;;;;;;4996150;28;20464;-77
2023/02/22 02:41:30;;;;;;;11.00;9.87;;;8.60;99.90;;;;;;4999503;28;20547;-77
2023/02/22 02:44:02;;;;;;;11.90;11.00;;;8.60;99.90;;;;;;4998347;28;20501;-80
2023/02/22 02:46:34;;;;;;;10.97;9.93;;;8.60;99.90;;;;;;5004596;28;21315;-80
2023/02/22 02:49:08;;;;;;;10.03;9.23;;;8.60;99.90;;;;;;4996519;28;20469;-78
2023/02/22 02:51:39;;;;;;;11.30;10.30;;;8.50;99.90;;;;;;4998342;28;20519;-78
2023/02/22 02:54:10;;;;;;;11.30;10.30;;;8.50;99.90;;;;;;4999251;28;20465;-78
2023/02/22 02:56:38;;;;;;;10.33;9.60;;;8.50;99.90;;;;;;5003590;28;20478;-79
2023/02/22 02:59:24;;;;;;;11.30;10.43;;;8.50;99.90;;;;;;5001932;28;20547;-78
2023/02/22 03:02:05;;;;;;;11.57;10.67;;;8.50;99.90;;;;;;5003277;28;20472;-78
2023/02/22 03:04:48;;;;;;;11.50;10.60;;;8.50;99.90;;;;;;5000270;28;20482;-77
2023/02/22 03:07:33;;;;;;;10.53;9.67;;;8.40;99.90;;;;;;5008242;28;20480;-78
2023/02/22 03:10:17;;;;;;;11.10;10.10;;;8.30;99.90;;;;;;5000608;28;20448;-78
2023/02/22 03:12:51;;;;;;;11.73;10.70;;;8.10;99.90;;;;;;5007182;28;20484;-78
2023/02/22 03:15:31;;;;;;;10.80;10.10;;;8.20;99.90;;;;;;5005832;28;20498;-76
2023/02/22 03:18:06;;;;;;;10.83;9.93;;;8.30;99.90;;;;;;5013420;28;20467;-77
2023/02/22 03:20:42;;;;;;;10.80;10.10;;;8.40;99.90;;;;;;5005750;28;20452;-77
2023/02/22 03:23:19;;;;;;;10.93;9.93;;;8.40;99.90;;;;;;5003195;28;20455;-76
2023/02/22 03:25:51;;;;;;;11.20;10.17;;;8.40;99.90;;;;;;5002817;28;20456;-78
2023/02/22 03:28:25;;;;;;;12.03;10.97;;;8.40;99.90;;;;;;5007853;28;20509;-78
2023/02/22 03:30:57;;;;;;;11.17;10.10;;;8.40;99.90;;;;;;5006369;28;20510;-78
2023/02/22 03:33:32;;;;;;;10.30;9.60;;;8.40;99.90;;;;;;5004795;28;20519;-77
2023/02/22 03:36:07;;;;;;;10.93;10.20;;;8.30;99.90;;;;;;5009158;28;20967;-78
2023/02/22 03:38:38;;;;;;;10.73;9.93;;;8.40;99.90;;;;;;4999975;28;20519;-76
2023/02/22 03:41:08;;;;;;;10.90;9.97;;;8.30;99.90;;;;;;5002162;28;20496;-78
2023/02/22 03:43:41;;;;;;;10.73;9.87;;;8.40;99.90;;;;;;5001134;28;20485;-78
2023/02/22 03:46:11;;;;;;;10.57;9.77;;;8.40;99.90;;;;;;5004401;28;20493;-78
2023/02/22 03:48:46;;;;;;;11.03;10.23;;;8.40;99.90;;;;;;5002447;28;20487;-79
2023/02/22 03:51:17;;;;;;;9.83;9.10;;;8.30;99.90;;;;;;5006244;28;20452;-78
2023/02/22 03:53:46;;;;;;;10.17;9.40;;;8.30;99.90;;;;;;5002617;28;20470;-78
2023/02/22 03:56:21;;;;;;;10.23;9.37;;;8.30;99.90;;;;;;5003562;28;20484;-79
2023/02/22 03:58:50;;;;;;;10.77;9.73;;;8.30;99.90;;;;;;5001648;28;20476;-76
2023/02/22 04:01:22;;;;;;;10.13;9.37;;;8.30;99.90;;;;;;5004788;28;20440;-80
2023/02/22 04:03:50;;;;;;;10.10;9.20;;;8.30;99.90;;;;;;5006502;28;20719;-79
2023/02/22 04:06:20;;;;;;;11.47;10.37;;;8.10;99.90;;;;;;5002195;28;20468;-78
2023/02/22 04:08:48;;;;;;;9.30;8.77;;;8.10;99.90;;;;;;5007241;28;20463;-79
2023/02/22 04:11:17;;;;;;;9.87;9.10;;;8.10;99.90;;;;;;5000109;28;20456;-79
2023/02/22 04:13:45;;;;;;;10.30;9.33;;;8.10;99.90;;;;;;5002090;28;20483;-79
2023/02/22 04:16:13;;;;;;;9.97;9.27;;;8.10;99.90;;;;;;5001523;28;20459;-79
2023/02/22 04:18:41;;;;;;;9.10;8.50;;;8.10;99.90;;;;;;5005661;28;20920;-81
2023/02/22 04:21:09;;;;;;;11.10;10.30;;;8.10;99.90;;;;;;4999765;28;20534;-79
2023/02/22 04:23:39;;;;;;;10.50;9.50;;;7.90;99.90;;;;;;5002545;28;20461;-79
2023/02/22 04:26:07;;;;;;;9.77;9.07;;;7.80;99.90;;;;;;5000902;28;20491;-79
2023/02/22 04:28:35;;;;;;;10.07;9.37;;;7.90;99.90;;;;;;5003043;28;21157;-79
2023/02/22 04:31:03;;;;;;;10.27;9.20;;;7.90;99.90;;;;;;5002345;28;20546;-79
2023/02/22 04:33:31;;;;;;;11.10;10.10;;;8.00;99.90;;;;;;5001231;28;20534;-79
2023/02/22 04:35:59;;;;;;;9.80;8.97;;;8.00;99.90;;;;;;5001197;28;20467;-78
2023/02/22 04:38:28;;;;;;;9.50;8.90;;;8.00;99.90;;;;;;5002163;28;20996;-78
2023/02/22 04:40:57;;;;;;;10.40;9.60;;;7.90;99.90;;;;;;5003481;28;20540;-79
2023/02/22 04:43:25;;;;;;;11.40;10.37;;;7.80;99.90;;;;;;4998616;28;20522;-79
2023/02/22 04:45:53;;;;;;;10.60;9.80;;;7.70;99.90;;;;;;4998518;28;20484;-79
2023/02/22 04:48:21;;;;;;;11.00;10.10;;;7.70;99.90;;;;;;4998702;28;20452;-78
2023/02/22 04:50:51;;;;;;;10.87;10.00;;;7.70;99.90;;;;;;4997446;28;20449;-79
2023/02/22 04:53:19;;;;;;;11.20;10.30;;;7.60;99.90;;;;;;4996945;28;20448;-78
2023/02/22 04:55:47;;;;;;;10.97;10.03;;;7.60;99.90;;;;;;5003809;28;20519;-78
2023/02/22 04:58:16;;;;;;;11.17;10.47;;;7.60;99.90;;;;;;4999429;28;20506;-79
2023/02/22 05:00:45;;;;;;;11.03;10.20;;;7.70;99.90;;;;;;5000091;28;20459;-80
2023/02/22 05:03:13;;;;;;;11.47;10.50;;;7.70;99.90;;;;;;4999959;28;20461;-78
2023/02/22 05:05:41;;;;;;;11.47;10.57;;;7.70;99.90;;;;;;5002998;28;20477;-79
2023/02/22 05:08:09;;;;;;;10.70;9.90;;;7.80;99.90;;;;;;5004166;28;20543;-78
2023/02/22 05:10:37;;;;;;;10.60;9.60;;;7.80;99.90;;;;;;5001472;28;20504;-79
2023/02/22 05:13:06;;;;;;;10.87;10.00;;;7.90;99.90;;;;;;5003629;28;20497;-78
2023/02/22 05:15:35;;;;;;;11.57;10.57;;;7.90;99.90;;;;;;5005849;28;20491;-77
2023/02/22 05:18:03;;;;;;;11.47;10.50;;;7.80;99.90;;;;;;5003204;28;20479;-79
2023/02/22 05:20:34;;;;;;;9.70;8.90;;;7.80;99.90;;;;;;5008588;28;20854;-78
2023/02/22 05:23:04;;;;;;;9.70;9.13;;;7.80;99.90;;;;;;5003340;28;20457;-79
2023/02/22 05:25:33;;;;;;;10.77;9.87;;;7.70;99.90;;;;;;5006248;28;20485;-77
2023/02/22 05:28:04;;;;;;;10.57;9.50;;;7.70;99.90;;;;;;5007520;28;20474;-77
2023/02/22 05:30:35;;;;;;;10.47;9.60;;;7.70;99.90;;;;;;5002622;28;20459;-76
2023/02/22 05:33:03;;;;;;;11.07;10.17;;;7.80;99.90;;;;;;5001152;28;20496;-78
2023/02/22 05:35:32;;;;;;;10.97;9.83;;;7.80;99.90;;;;;;5005369;28;20555;-79
2023/02/22 05:38:01;;;;;;;10.97;10.17;;;7.80;99.90;;;;;;5001277;28;20472;-78
2023/02/22 05:40:31;;;;;;;11.97;10.87;;;7.70;99.90;;;;;;5004337;28;20450;-77
2023/02/22 05:43:00;;;;;;;10.40;9.70;;;7.70;99.90;;;;;;4997844;28;20456;-76
2023/02/22 05:45:29;;;;;;;10.43;9.53;;;7.70;99.90;;;;;;5002041;28;20484;-77
2023/02/22 05:48:00;;;;;;;10.80;9.87;;;7.60;99.90;;;;;;4995278;28;21261;-79
2023/02/22 05:50:28;;;;;;;11.00;10.20;;;7.70;99.90;;;;;;4999308;28;20457;-78
2023/02/22 05:52:56;;;;;;;10.77;9.67;;;7.70;99.90;;;;;;5003672;28;20588;-79
2023/02/22 05:55:25;;;;;;;11.40;9.77;;;7.80;99.90;;;;;;5006618;28;20492;-78
2023/02/22 05:57:53;;;;;;;11.13;10.20;;;7.70;99.90;;;;;;4998830;28;20469;-78
2023/02/22 06:00:23;;;;;;;11.37;10.00;;;7.70;99.90;;;;;;4997791;28;20460;-80
2023/02/22 06:02:56;;;;;;;12.17;10.97;;;7.70;99.90;;;;;;5001565;28;20453;-79
2023/02/22 06:05:26;;;;;;;11.43;10.23;;;7.70;99.90;;;;;;4997921;28;20839;-78
2023/02/22 06:07:55;;;;;;;11.47;10.50;;;7.80;99.90;;;;;;5009892;28;20470;-79
2023/02/22 06:10:23;;;;;;;10.60;9.90;;;7.80;99.90;;;;;;5004958;28;20550;-78
2023/02/22 06:12:52;;;;;;;13.00;11.73;;;7.70;99.90;;;;;;5004736;28;20466;-77
2023/02/22 06:15:21;;;;;;;11.67;10.60;;;7.60;99.90;;;;;;5000060;28;20463;-77
2023/02/22 06:17:50;;;;;;;10.97;10.07;;;7.50;99.90;;;;;;4999710;28;20568;-78
2023/02/22 06:20:21;;;;;;;12.27;11.27;;;7.60;99.90;;;;;;5002069;28;20464;-78
2023/02/22 06:22:52;;;;;;;11.23;10.23;;;7.60;99.90;;;;;;5005954;28;20444;-81
2023/02/22 06:25:23;;;;;;;11.23;10.43;;;7.60;99.90;;;;;;4999687;28;20925;-77
2023/02/22 06:27:52;;;;;;;10.77;10.00;;;7.70;99.90;;;;;;5005942;28;20826;-80
2023/02/22 06:30:22;;;;;;;11.40;10.40;;;7.70;99.90;;;;;;5003806;28;20463;-80
2023/02/22 06:32:50;;;;;;;10.73;9.80;;;7.60;99.90;;;;;;4998656;28;20953;-78
2023/02/22 06:35:18;;;;;;;12.90;10.03;;;7.70;99.90;;;;;;5005924;28;20856;-77
2023/02/22 06:37:46;;;;;;;10.70;9.70;;;7.60;99.90;;;;;;4997294;28;21044;-78
2023/02/22 06:40:16;;;;;;;11.33;10.33;;;7.60;99.90;;;;;;5007435;28;20460;-79
2023/02/22 06:42:47;;;;;;;11.27;10.50;;;7.50;99.90;;;;;;5007941;28;22291;-77
2023/02/22 06:45:17;;;;;;;11.10;10.30;;;7.60;99.90;;;;;;5002528;28;20462;-79
2023/02/22 06:47:45;;;;;;;9.60;9.00;;;7.60;99.90;;;;;;4999388;28;20527;-80
2023/02/22 06:50:21;;;;;;;10.70;9.90;;;7.60;99.90;;;;;;5000889;28;20531;-77
2023/02/22 06:52:49;;;;;;;10.67;9.87;;;7.70;99.90;;;;;;5001829;28;20955;-77
2023/02/22 06:55:20;;;;;;;11.80;11.00;;;7.70;99.90;;;;;;4999827;28;20462;-78
2023/02/22 06:57:48;;;;;;;11.57;10.57;;;7.70;99.90;;;;;;5004291;28;20484;-77
2023/02/22 07:00:18;;;;;;;10.33;9.53;;;7.70;99.90;;;;;;5006896;28;20511;-77
2023/02/22 07:02:48;;;;;;;11.20;10.10;;;7.80;99.90;;;;;;5008891;28;20468;-77
2023/02/22 07:05:18;;;;;;;10.53;9.10;;;7.90;99.90;;;;;;5001389;28;20542;-78
2023/02/22 07:07:47;;;;;;;13.47;10.33;;;7.90;99.90;;;;;;5002821;28;20483;-78
2023/02/22 07:10:24;;;;;;;12.20;10.97;;;8.00;99.90;;;;;;4996942;28;20450;-79
2023/02/22 07:12:52;;;;;;;15.73;13.93;;;8.00;99.90;;;;;;4999359;28;20479;-77
2023/02/22 07:15:22;;;;;;;20.07;17.87;;;8.00;99.90;;;;;;5003936;28;20444;-79
2023/02/22 07:17:51;;;;;;;18.90;16.90;;;8.00;99.90;;;;;;4996424;28;20474;-78
2023/02/22 07:20:20;;;;;;;18.17;15.93;;;8.00;99.90;;;;;;5003274;28;20874;-78
2023/02/22 07:22:49;;;;;;;17.17;15.43;;;8.10;99.90;;;;;;4999567;28;20468;-79
2023/02/22 07:25:19;;;;;;;16.67;14.97;;;8.10;99.90;;;;;;4997727;28;20474;-79
2023/02/22 07:27:47;;;;;;;14.57;13.17;;;8.20;99.90;;;;;;4995299;28;20483;-78
2023/02/22 07:30:19;;;;;;;16.73;13.50;;;8.30;99.90;;;;;;4995591;28;20820;-80
2023/02/22 07:32:47;;;;;;;15.63;14.00;;;8.30;99.90;;;;;;4997869;28;20453;-77
2023/02/22 07:35:17;;;;;;;14.87;13.20;;;8.40;99.90;;;;;;4999222;28;20522;-79
2023/02/22 07:37:46;;;;;;;13.60;12.40;;;8.50;99.90;;;;;;4999744;28;20470;-78
2023/02/22 07:40:16;;;;;;;16.70;13.43;;;8.60;99.90;;;;;;4994909;28;20548;-78
2023/02/22 07:42:53;;;;;;;36.50;29.20;;;8.70;99.90;;;;;;5000949;28;20509;-77
2023/02/22 07:45:22;;;;;;;22.93;18.97;;;8.90;99.90;;;;;;4992645;28;20459;-78
2023/02/22 07:47:50;;;;;;;15.17;13.60;;;9.00;99.90;;;;;;4989478;28;20520;-78
2023/02/22 07:50:21;;;;;;;15.83;14.17;;;9.20;99.90;;;;;;4993332;28;20464;-80
2023/02/22 07:52:51;;;;;;;12.47;11.27;;;9.30;99.90;;;;;;4995794;28;20445;-74
2023/02/22 07:55:21;;;;;;;12.43;11.20;;;9.50;99.90;;;;;;4993057;28;20459;-78
2023/02/22 07:57:52;;;;;;;13.43;12.00;;;9.80;99.90;;;;;;4986813;28;20502;-79
2023/02/22 08:00:24;;;;;;;12.13;10.67;;;10.10;99.90;;;;;;4994565;28;20470;-78
2023/02/22 08:02:53;;;;;;;15.50;12.70;;;10.40;99.90;;;;;;4996881;28;20798;-78
2023/02/22 08:05:23;;;;;;;13.03;11.90;;;10.40;99.90;;;;;;4999563;28;20461;-77
2023/02/22 08:07:51;;;;;;;11.90;10.87;;;10.50;99.90;;;;;;4998504;28;20547;-76
2023/02/22 08:10:21;;;;;;;13.53;12.20;;;10.50;99.90;;;;;;4998656;28;20456;-77
2023/02/22 08:12:50;;;;;;;12.50;11.47;;;10.70;99.90;;;;;;4996415;28;20451;-76
2023/02/22 08:15:23;;;;;;;14.43;12.87;;;10.80;99.90;;;;;;4998923;28;20452;-75
2023/02/22 08:17:52;;;;;;;13.17;11.77;;;11.00;99.90;;;;;;4997033;28;21042;-76
2023/02/22 08:20:20;;;;;;;13.20;11.40;;;11.20;99.90;;;;;;4998429;28;20462;-76
2023/02/22 08:22:48;;;;;;;12.73;11.43;;;11.60;99.90;;;;;;4995687;28;20455;-77
2023/02/22 08:25:19;;;;;;;13.03;11.87;;;11.80;99.90;;;;;;4999242;28;20509;-77
2023/02/22 08:27:47;;;;;;;15.47;14.07;;;12.10;99.90;;;;;;4996324;28;20512;-78
2023/02/22 08:30:18;;;;;;;13.30;12.00;;;12.40;99.90;;;;;;4997587;28;20826;-79
2023/02/22 08:32:48;;;;;;;13.10;12.10;;;12.70;99.90;;;;;;4994826;28;20450;-78
2023/02/22 08:35:18;;;;;;;14.83;11.53;;;13.10;99.90;;;;;;4996767;28;20463;-76
2023/02/22 08:37:47;;;;;;;11.40;10.30;;;13.50;99.90;;;;;;4996544;28;21414;-76
2023/02/22 08:40:18;;;;;;;11.77;10.83;;;13.90;99.90;;;;;;5001818;28;20518;-77
2023/02/22 08:42:46;;;;;;;13.07;10.50;;;14.10;99.90;;;;;;4994911;28;20452;-78
2023/02/22 08:45:15;;;;;;;11.97;10.83;;;14.20;99.90;;;;;;4996308;28;20452;-76
2023/02/22 08:47:44;;;;;;;10.33;9.33;;;14.20;99.90;;;;;;5001272;28;20484;-76
2023/02/22 08:50:18;;;;;;;11.60;10.57;;;14.30;99.90;;;;;;5001102;28;20512;-77
2023/02/22 08:52:46;;;;;;;12.00;11.13;;;14.60;99.90;;;;;;4999828;28;20462;-78
2023/02/22 08:55:14;;;;;;;12.87;10.23;;;14.80;99.90;;;;;;4999159;28;20473;-78
2023/02/22 08:57:43;;;;;;;11.13;10.23;;;15.20;99.90;;;;;;5001447;28;20485;-78
2023/02/22 09:00:12;;;;;;;13.00;11.00;;;15.50;99.90;;;;;;5002302;28;20519;-77
2023/02/22 09:02:40;;;;;;;10.97;10.00;;;15.80;99.90;;;;;;5001533;28;20972;-78
2023/02/22 09:05:09;;;;;;;9.93;9.13;;;16.20;99.90;;;;;;5003837;28;20452;-77
2023/02/22 09:07:41;;;;;;;9.83;9.13;;;16.40;99.90;;;;;;5002254;28;20488;-78
2023/02/22 09:10:15;;;;;;;10.87;9.73;;;16.20;99.90;;;;;;5003300;28;20469;-77
2023/02/22 09:12:43;;;;;;;9.93;9.20;;;16.10;99.90;;;;;;5008534;28;21301;-75
2023/02/22 09:15:12;;;;;;;10.00;9.30;;;16.20;99.90;;;;;;5002242;28;20521;-78
2023/02/22 09:17:40;;;;;;;15.33;11.53;;;16.30;99.90;;;;;;5002763;28;21107;-78
2023/02/22 09:20:11;;;;;;;10.10;9.40;;;16.40;99.90;;;;;;5003409;28;20502;-78
2023/02/22 09:22:40;;;;;;;10.63;9.67;;;16.50;99.90;;;;;;5002391;28;20568;-76
2023/02/22 09:25:09;;;;;;;12.20;10.47;;;16.70;99.90;;;;;;5002106;28;20459;-77
2023/02/22 09:27:44;;;;;;;13.13;10.47;;;17.00;99.90;;;;;;5002893;28;20490;-77
2023/02/22 09:30:22;;;;;;;10.80;9.90;;;17.20;99.90;;;;;;4995655;28;20534;-77
2023/02/22 09:32:52;;;;;;;11.60;10.70;;;17.20;99.90;;;;;;4998174;28;20452;-78
2023/02/22 09:35:25;;;;;;;10.17;9.37;;;17.50;99.90;;;;;;4998251;28;20460;-79
2023/02/22 09:37:57;;;;;;;11.70;10.50;;;17.90;99.90;;;;;;4997671;28;20468;-78
2023/02/22 09:40:29;;;;;;;15.20;10.83;;;18.30;99.90;;;;;;4997407;28;20452;-79
2023/02/22 09:43:17;;;;;;;10.50;9.70;;;18.50;99.90;;;;;;5012521;28;20460;-77
2023/02/22 09:46:04;;;;;;;13.53;10.07;;;18.80;99.90;;;;;;4998208;28;21040;-81
2023/02/22 09:48:39;;;;;;;9.80;9.10;;;19.10;99.90;;;;;;4999903;28;20971;-76
2023/02/22 09:51:15;;;;;;;11.57;10.50;;;19.40;99.90;;;;;;4999843;28;20448;-77
2023/02/22 09:53:48;;;;;;;11.23;10.20;;;19.70;99.90;;;;;;4994873;28;20965;-77
2023/02/22 09:56:20;;;;;;;14.90;10.60;;;20.00;99.90;;;;;;4995625;28;20488;-77
2023/02/22 09:58:52;;;;;;;11.70;10.90;;;20.30;99.90;;;;;;4996898;28;20456;-79
2023/02/22 10:01:27;;;;;;;10.33;9.53;;;20.50;99.90;;;;;;4996683;28;20468;-81
2023/02/22 10:04:04;;;;;;;10.80;9.23;;;20.90;99.90;;;;;;4998432;28;20448;-76
2023/02/22 10:06:34;;;;;;;11.23;10.13;;;21.10;99.90;;;;;;5002216;28;20532;-76
2023/02/22 10:09:07;;;;;;;10.57;9.50;;;21.50;99.90;;;;;;5006677;28;20532;-77
2023/02/22 10:11:51;;;;;;;11.47;10.47;;;21.80;99.90;;;;;;4997533;28;20460;-77
2023/02/22 10:14:49;;;;;;;9.97;9.10;;;22.30;99.90;;;;;;5000678;28;20460;-77
2023/02/22 10:17:29;;;;;;;13.03;10.03;;;22.30;99.90;;;;;;4992236;28;20473;-76
2023/02/22 10:20:14;;;;;;;14.10;9.43;;;22.90;99.90;;;;;;4995552;28;20451;-76
2023/02/22 10:22:56;;;;;;;9.73;9.00;;;23.20;99.90;;;;;;4995287;28;20461;-78
2023/02/22 10:25:33;;;;;;;8.83;8.07;;;23.20;99.90;;;;;;4998015;28;20956;-77
2023/02/22 10:28:05;;;;;;;8.93;8.13;;;23.80;99.90;;;;;;4995383;28;20488;-78
2023/02/22 10:30:38;;;;;;;7.07;6.53;;;23.80;99.90;;;;;;4994700;28;20456;-78
2023/02/22 10:33:14;;;;;;;9.60;8.70;;;24.00;99.90;;;;;;4993189;28;20557;-79
2023/02/22 10:35:44;;;;;;;8.43;7.73;;;24.80;99.90;;;;;;4994856;28;20468;-77
2023/02/22 10:38:19;;;;;;;8.23;7.53;;;25.40;99.90;;;;;;4994158;28;20878;-78
2023/02/22 10:40:54;;;;;;;9.73;8.03;;;26.10;99.90;;;;;;4998101;28;20874;-77
2023/02/22 10:43:24;;;;;;;7.60;7.20;;;26.10;99.90;;;;;;4996092;28;20489;-78
2023/02/22 10:45:56;;;;;;;8.03;7.20;;;26.10;99.90;;;;;;4996141;28;20887;-80
2023/02/22 10:48:29;;;;;;;7.57;6.93;;;26.50;99.90;;;;;;4995000;28;20661;-77
2023/02/22 10:51:00;;;;;;;8.10;7.50;;;25.70;99.90;;;;;;4992492;28;20461;-77
2023/02/22 10:53:30;;;;;;;8.60;7.90;;;24.80;99.90;;;;;;4996099;28;20455;-77
2023/02/22 10:56:13;;;;;;;8.83;8.43;;;24.00;99.90;;;;;;4995912;28;20444;-79
2023/02/22 10:58:47;;;;;;;8.87;8.10;;;25.20;99.90;;;;;;5000220;28;20862;-78
2023/02/22 11:01:26;;;;;;;8.70;8.20;;;26.40;99.90;;;;;;5000056;28;20995;-79
2023/02/22 11:04:00;;;;;;;7.53;7.13;;;27.40;99.90;;;;;;4991620;28;20456;-79
2023/02/22 11:06:29;;;;;;;8.93;8.23;;;27.50;99.90;;;;;;4997655;28;20488;-80
2023/02/22 11:09:14;;;;;;;7.33;6.83;;;28.00;99.90;;;;;;4998157;28;20492;-77
2023/02/22 11:11:46;;;;;;;8.43;8.03;;;26.90;99.90;;;;;;4998168;28;20461;-78
2023/02/22 11:14:26;;;;;;;8.80;7.90;;;25.30;99.90;;;;;;4997477;28;20449;-78
2023/02/22 11:16:56;;;;;;;7.23;6.70;;;24.20;99.90;;;;;;4997794;28;20473;-78
2023/02/22 11:19:26;;;;;;;6.60;6.10;;;24.20;99.90;;;;;;4996155;28;20464;-79
2023/02/22 11:21:57;;;;;;;6.80;6.40;;;24.00;99.90;;;;;;4996128;28;20442;-77
2023/02/22 11:24:27;;;;;;;6.97;6.47;;;23.80;99.90;;;;;;4998263;28;20508;-77
2023/02/22 11:27:08;;;;;;;6.53;6.13;;;22.70;99.90;;;;;;4991882;28;20566;-77
2023/02/22 11:29:38;;;;;;;7.47;6.97;;;21.90;99.90;;;;;;4997991;28;20487;-79
2023/02/22 11:32:19;;;;;;;7.83;7.30;;;23.00;99.90;;;;;;4997290;28;20450;-77
2023/02/22 11:34:51;;;;;;;6.97;6.47;;;24.40;99.90;;;;;;4995617;28;21289;-78
2023/02/22 11:37:37;;;;;;;8.03;7.43;;;23.40;99.90;;;;;;4997525;28;20560;-78
2023/02/22 11:40:11;;;;;;;7.00;6.53;;;22.60;99.90;;;;;;4996925;28;20457;-78
2023/02/22 11:42:41;;;;;;;6.83;6.43;;;21.40;99.90;;;;;;4997753;28;20457;-78
2023/02/22 11:45:12;;;;;;;6.50;6.10;;;20.60;98.80;;;;;;4993704;28;21016;-77
2023/02/22 11:47:54;;;;;;;7.27;6.77;;;20.00;95.00;;;;;;4996418;28;20562;-79
2023/02/22 11:50:29;;;;;;;6.60;6.00;;;19.70;93.70;;;;;;5000755;28;20941;-81
2023/02/22 11:53:15;;;;;;;6.93;6.43;;;19.50;92.80;;;;;;4999352;28;20963;-80
2023/02/22 11:55:51;;;;;;;8.13;7.33;;;19.40;93.40;;;;;;5013689;28;20461;-79
2023/02/22 11:58:37;;;;;;;7.00;6.30;;;19.70;95.40;;;;;;4995174;28;20474;-78
2023/02/22 12:01:16;;;;;;;7.37;6.87;;;20.00;97.40;;;;;;4998608;28;20450;-79
2023/02/22 12:04:17;;;;;;;6.67;6.27;;;20.10;98.00;;;;;;4998400;28;20449;-78
2023/02/22 12:06:55;;;;;;;6.90;6.40;;;20.10;98.60;;;;;;4992496;28;20485;-78
2023/02/22 12:09:31;;;;;;;6.47;6.07;;;20.10;99.20;;;;;;4998713;28;20527;-80
2023/02/22 12:12:12;;;;;;;6.50;6.00;;;20.10;99.30;;;;;;4993290;28;20458;-79
2023/02/22 12:14:52;;;;;;;6.33;5.80;;;20.00;99.30;;;;;;4993314;28;20453;-77
2023/02/22 12:17:30;;;;;;;7.67;7.00;;;19.80;98.30;;;;;;4995996;28;20478;-77
2023/02/22 12:20:05;;;;;;;6.40;5.70;;;19.80;98.10;;;;;;4994961;28;20454;-78
2023/02/22 12:22:35;;;;;;;6.60;6.00;;;19.80;98.90;;;;;;4994181;28;20471;-79
2023/02/22 12:25:13;;;;;;;7.10;6.60;;;19.90;99.90;;;;;;4994542;28;20445;-77
2023/02/22 12:27:44;;;;;;;7.47;6.87;;;19.90;99.90;;;;;;4995692;28;20474;-79
2023/02/22 12:30:18;;;;;;;7.83;7.40;;;19.90;99.90;;;;;;4992745;28;20477;-79
2023/02/22 12:32:50;;;;;;;9.90;7.67;;;20.00;99.90;;;;;;4993071;28;20476;-79
2023/02/22 12:35:23;;;;;;;8.30;7.80;;;19.90;99.90;;;;;;5011179;28;20477;-77
2023/02/22 12:38:00;;;;;;;8.73;8.13;;;19.80;99.90;;;;;;4992672;28;20480;-78
2023/02/22 12:40:35;;;;;;;9.47;7.90;;;19.80;99.90;;;;;;4996389;28;20459;-79
2023/02/22 12:43:10;;;;;;;8.80;8.27;;;19.90;99.90;;;;;;4991811;28;20449;-78
2023/02/22 12:45:44;;;;;;;8.60;8.00;;;20.00;99.90;;;;;;4993513;28;21229;-82
2023/02/22 12:48:42;;;;;;;9.93;9.33;;;19.90;99.90;;;;;;4995810;28;20511;-78
2023/02/22 12:51:28;;;;;;;8.80;8.30;;;19.50;98.90;;;;;;4995951;28;20470;-77
2023/02/22 12:54:03;;;;;;;10.03;9.23;;;19.50;99.80;;;;;;4995563;28;20469;-78
2023/02/22 12:56:35;;;;;;;8.67;8.07;;;19.40;99.90;;;;;;4995781;28;20477;-79
2023/02/22 12:59:10;;;;;;;9.73;8.90;;;19.40;99.90;;;;;;4998485;28;20704;-79
2023/02/22 13:01:42;;;;;;;10.17;9.20;;;19.40;99.90;;;;;;4998332;28;21367;-78
2023/02/22 13:04:10;;;;;;;9.40;8.80;;;19.40;99.90;;;;;;5000483;28;20470;-78
2023/02/22 13:07:08;;;;;;;9.77;9.10;;;19.30;99.60;;;;;;4994091;28;20566;-78